Time;durP1;ratioP1;P1;durP2;ratioP2;P2;SDS_P1;SDS_P2;PMS_P1;PMS_P2;Temp;Humidity;BMP_temperature;BMP_pressure;BME280_temperature;BME280_humidity;BME280_pressure;Samples;Min_cycle;Max_cycle;Signal;HPM_P1;HPM_P2
2023/10/17 00:01:13;;;;;;;3.00;1.73;;;7.30;99.90;;;;;;5072393;28;20048;-70
2023/10/17 00:03:38;;;;;;;5.03;2.00;;;7.30;99.90;;;;;;5055920;28;20082;-70
2023/10/17 00:06:06;;;;;;;5.13;1.92;;;7.30;99.90;;;;;;5072556;28;20076;-70
2023/10/17 00:08:35;;;;;;;3.58;1.88;;;7.30;99.90;;;;;;5072264;28;20059;-70
2023/10/17 00:11:17;;;;;;;6.22;2.53;;;7.30;99.90;;;;;;5072511;28;20566;-70
2023/10/17 00:16:48;;;;;;;5.97;1.80;;;7.20;99.90;;;;;;5054283;28;20049;-70
2023/10/17 00:19:16;;;;;;;4.38;2.22;;;7.20;99.90;;;;;;5054524;28;20047;-70
2023/10/17 00:21:42;;;;;;;7.85;2.10;;;7.20;99.90;;;;;;5061275;28;20056;-70
2023/10/17 00:24:09;;;;;;;6.57;2.20;;;7.20;99.90;;;;;;5072071;28;20167;-70
2023/10/17 00:26:39;;;;;;;3.72;1.90;;;7.20;99.90;;;;;;5072099;28;20105;-70
2023/10/17 00:29:05;;;;;;;3.72;1.70;;;7.20;99.90;;;;;;5072011;28;20044;-70
2023/10/17 00:31:32;;;;;;;5.90;1.95;;;7.20;99.90;;;;;;5071982;28;20076;-70
2023/10/17 00:33:58;;;;;;;6.00;2.03;;;7.20;99.90;;;;;;5071153;28;20525;-70
2023/10/17 00:36:26;;;;;;;4.25;1.70;;;7.20;99.90;;;;;;5071744;28;20475;-70
2023/10/17 00:38:54;;;;;;;4.10;1.80;;;7.10;99.90;;;;;;5072149;28;20054;-70
2023/10/17 00:41:32;;;;;;;5.45;1.88;;;7.10;99.90;;;;;;5071843;28;20421;-70
2023/10/17 00:43:58;;;;;;;6.55;1.60;;;7.10;99.90;;;;;;5071877;28;20040;-70
2023/10/17 00:46:24;;;;;;;4.78;2.00;;;7.00;99.90;;;;;;5072029;28;20043;-70
2023/10/17 00:48:51;;;;;;;3.55;1.80;;;7.00;99.90;;;;;;5072068;28;20497;-70
2023/10/17 00:51:21;;;;;;;3.00;1.42;;;7.00;99.90;;;;;;5071760;28;20094;-70
2023/10/17 00:53:47;;;;;;;3.00;1.42;;;7.00;99.90;;;;;;5071747;28;20077;-70
2023/10/17 00:56:13;;;;;;;2.80;1.48;;;7.00;99.90;;;;;;5071788;28;20047;-70
2023/10/17 00:58:42;;;;;;;4.63;1.40;;;6.90;99.90;;;;;;5071663;28;20501;-70
2023/10/17 01:01:16;;;;;;;3.42;1.80;;;6.90;99.90;;;;;;5071686;28;20607;-70
2023/10/17 01:03:45;;;;;;;4.03;1.70;;;6.90;99.90;;;;;;5071735;28;20048;-70
2023/10/17 01:08:57;;;;;;;2.30;1.55;;;6.90;99.90;;;;;;5071871;28;20040;-70
2023/10/17 01:11:27;;;;;;;7.07;2.10;;;6.80;99.90;;;;;;5071553;28;20076;-70
2023/10/17 01:13:53;;;;;;;6.18;2.10;;;6.80;99.90;;;;;;5071881;28;20136;-70
2023/10/17 01:16:24;;;;;;;6.32;2.00;;;6.80;99.90;;;;;;5071394;28;20572;-70
2023/10/17 01:18:50;;;;;;;5.32;2.00;;;6.90;99.90;;;;;;5071435;28;20083;-70
2023/10/17 01:21:20;;;;;;;4.18;1.48;;;6.90;99.90;;;;;;5071472;28;20037;-70
2023/10/17 01:23:47;;;;;;;5.45;1.80;;;6.90;99.90;;;;;;5071706;28;20401;-70
2023/10/17 01:26:29;;;;;;;3.30;1.40;;;6.90;99.90;;;;;;5071346;28;20040;-70
2023/10/17 01:28:54;;;;;;;4.10;1.63;;;7.00;99.90;;;;;;5054715;28;20033;-70
2023/10/17 01:31:24;;;;;;;4.57;1.70;;;6.90;99.90;;;;;;5071383;28;20135;-70
2023/10/17 01:33:59;;;;;;;5.38;1.88;;;6.90;99.90;;;;;;5072905;28;20127;-70
2023/10/17 01:36:25;;;;;;;4.72;1.88;;;6.90;99.90;;;;;;5071173;28;20474;-70
2023/10/17 01:38:52;;;;;;;6.28;2.60;;;6.90;99.90;;;;;;5071563;28;20040;-70
2023/10/17 01:41:19;;;;;;;6.60;2.70;;;6.90;99.90;;;;;;5071292;28;20048;-70
2023/10/17 01:43:45;;;;;;;10.13;2.80;;;6.90;99.90;;;;;;5071767;28;20045;-70
2023/10/17 01:46:15;;;;;;;7.18;2.97;;;6.80;99.90;;;;;;5075185;28;20093;-70
2023/10/17 01:48:48;;;;;;;9.63;3.53;;;6.80;99.90;;;;;;5074900;28;20044;-70
2023/10/17 01:51:15;;;;;;;7.53;3.28;;;6.80;99.90;;;;;;5074888;28;20083;-70
2023/10/17 01:53:43;;;;;;;7.93;3.80;;;6.80;99.90;;;;;;5074806;28;20047;-70
2023/10/17 01:56:15;;;;;;;8.40;4.15;;;6.80;99.90;;;;;;5074603;28;20040;-70
2023/10/17 01:58:51;;;;;;;9.32;4.00;;;6.70;99.90;;;;;;5074748;28;20047;-70
2023/10/17 02:01:30;;;;;;;9.82;4.55;;;6.70;99.90;;;;;;5074985;28;20036;-70
2023/10/17 02:04:03;;;;;;;8.23;3.55;;;6.60;99.90;;;;;;5074718;28;20044;-70
2023/10/17 02:06:30;;;;;;;11.75;3.30;;;6.60;99.90;;;;;;5074825;28;20052;-70
2023/10/17 02:08:58;;;;;;;8.35;3.72;;;6.60;99.90;;;;;;5074555;28;20044;-70
2023/10/17 02:11:24;;;;;;;8.13;4.45;;;6.60;99.90;;;;;;5074771;28;20079;-70
2023/10/17 02:13:57;;;;;;;6.43;4.10;;;6.50;99.90;;;;;;5074717;28;20123;-70
2023/10/17 02:16:32;;;;;;;7.22;4.30;;;6.50;99.90;;;;;;5074422;28;20040;-70
2023/10/17 02:19:05;;;;;;;10.38;4.25;;;6.50;99.90;;;;;;5074554;28;20481;-70
2023/10/17 02:21:31;;;;;;;11.77;5.30;;;6.40;99.90;;;;;;5074377;28;20036;-70
2023/10/17 02:23:57;;;;;;;8.23;4.65;;;6.30;99.90;;;;;;5074567;28;20048;-70
2023/10/17 02:26:23;;;;;;;6.35;3.67;;;6.30;99.90;;;;;;5074186;28;20433;-70
2023/10/17 02:28:58;;;;;;;10.32;4.47;;;6.20;99.90;;;;;;5074190;28;20040;-70
2023/10/17 02:31:29;;;;;;;8.73;4.80;;;6.20;99.90;;;;;;5074467;28;20121;-70
2023/10/17 02:33:55;;;;;;;10.30;4.68;;;6.10;99.90;;;;;;5074214;28;20048;-70
2023/10/17 02:36:22;;;;;;;7.43;4.75;;;6.10;99.90;;;;;;5073939;28;20408;-70
2023/10/17 02:38:47;;;;;;;12.38;5.32;;;6.10;99.90;;;;;;5074017;28;20075;-70
2023/10/17 02:41:18;;;;;;;7.97;5.10;;;6.10;99.90;;;;;;5073978;28;20072;-70
2023/10/17 02:43:47;;;;;;;9.80;5.97;;;6.10;99.90;;;;;;5057290;28;20036;-70
2023/10/17 02:46:18;;;;;;;8.80;5.57;;;6.10;99.90;;;;;;5073782;28;20044;-69
2023/10/17 02:48:45;;;;;;;6.88;4.65;;;6.10;99.90;;;;;;5057093;28;20041;-70
2023/10/17 02:53:50;;;;;;;8.80;4.30;;;6.10;99.90;;;;;;5074023;28;20045;-70
2023/10/17 02:56:18;;;;;;;7.60;4.82;;;6.10;99.90;;;;;;5072936;28;20032;-70
2023/10/17 02:58:48;;;;;;;9.65;5.53;;;6.10;99.90;;;;;;5073890;28;20082;-70
2023/10/17 03:01:14;;;;;;;11.82;5.22;;;6.20;99.90;;;;;;5073808;28;20044;-70
2023/10/17 03:03:40;;;;;;;11.35;5.45;;;6.20;99.90;;;;;;5073504;28;20043;-70
2023/10/17 03:06:06;;;;;;;9.70;4.82;;;6.20;99.90;;;;;;5073680;28;20051;-70
2023/10/17 03:08:37;;;;;;;10.23;5.30;;;6.20;99.90;;;;;;5073427;28;20410;-70
2023/10/17 03:11:08;;;;;;;11.73;5.40;;;6.20;99.90;;;;;;5073404;28;20048;-70
2023/10/17 03:13:40;;;;;;;12.00;5.45;;;6.30;99.90;;;;;;5073872;28;20558;-70
2023/10/17 03:16:26;;;;;;;12.07;5.15;;;6.20;99.90;;;;;;5073390;28;20048;-70
2023/10/17 03:18:52;;;;;;;9.75;4.53;;;6.20;99.90;;;;;;5073053;28;20044;-70
2023/10/17 03:21:20;;;;;;;9.10;4.45;;;6.20;99.90;;;;;;5073212;28;20033;-70
2023/10/17 03:23:49;;;;;;;7.28;3.53;;;6.20;99.90;;;;;;5056459;28;20047;-70
2023/10/17 03:26:18;;;;;;;9.88;4.20;;;6.10;99.90;;;;;;5073241;28;20511;-70
2023/10/17 03:28:45;;;;;;;6.78;4.47;;;6.10;99.90;;;;;;5072994;28;20123;-70
2023/10/17 03:31:20;;;;;;;10.15;5.18;;;6.10;99.90;;;;;;5072940;28;20041;-70
2023/10/17 03:33:50;;;;;;;8.55;4.57;;;6.00;99.90;;;;;;5073238;28;20090;-70
2023/10/17 03:36:41;;;;;;;10.98;4.80;;;6.00;99.90;;;;;;5072900;28;20044;-70
2023/10/17 03:39:27;;;;;;;8.60;5.15;;;6.00;99.90;;;;;;5073092;28;20045;-70
2023/10/17 03:41:56;;;;;;;10.38;4.80;;;6.00;99.90;;;;;;5073039;28;20501;-70
2023/10/17 03:44:30;;;;;;;14.02;5.13;;;5.90;99.90;;;;;;5072941;28;20060;-70
2023/10/17 03:46:59;;;;;;;10.18;4.47;;;6.00;99.90;;;;;;5072856;28;20040;-70
2023/10/17 03:49:25;;;;;;;10.80;4.80;;;6.00;99.90;;;;;;5072671;28;20040;-70
2023/10/17 03:51:52;;;;;;;6.85;3.50;;;6.10;99.90;;;;;;5072540;28;20048;-70
2023/10/17 03:54:22;;;;;;;10.10;3.85;;;6.10;99.90;;;;;;5072565;28;20063;-70
2023/10/17 03:57:02;;;;;;;9.88;3.80;;;6.10;99.90;;;;;;5072361;28;20044;-71
2023/10/17 03:59:38;;;;;;;10.32;4.20;;;6.10;99.90;;;;;;5072509;28;20032;-71
2023/10/17 04:02:04;;;;;;;8.00;3.50;;;6.20;99.90;;;;;;5073524;28;20123;-71
2023/10/17 04:04:35;;;;;;;7.63;3.40;;;6.20;99.90;;;;;;5072630;28;20517;-71
2023/10/17 04:07:02;;;;;;;10.05;3.15;;;6.30;99.90;;;;;;5072254;28;20055;-71
2023/10/17 04:09:31;;;;;;;9.50;3.97;;;6.30;99.90;;;;;;5072262;28;20044;-71
2023/10/17 04:12:02;;;;;;;6.55;3.38;;;6.30;99.90;;;;;;5072261;28;20044;-71
2023/10/17 04:14:34;;;;;;;5.82;2.97;;;6.30;99.90;;;;;;5072503;28;20036;-71
2023/10/17 04:17:03;;;;;;;9.55;3.33;;;6.40;99.90;;;;;;5071948;28;20083;-71
2023/10/17 04:19:32;;;;;;;6.65;3.53;;;6.40;99.90;;;;;;5072421;28;20497;-71
2023/10/17 04:24:33;;;;;;;6.70;2.90;;;6.40;99.90;;;;;;5072312;28;20123;-71
2023/10/17 04:29:38;;;;;;;5.80;2.90;;;6.50;99.90;;;;;;5072319;28;20060;-71
2023/10/17 04:32:13;;;;;;;7.75;3.47;;;6.50;99.90;;;;;;5072255;28;20036;-71
2023/10/17 04:34:48;;;;;;;5.65;3.17;;;6.60;99.90;;;;;;5071964;28;20447;-71
2023/10/17 04:37:24;;;;;;;10.00;3.40;;;6.70;99.90;;;;;;5071813;28;20033;-71
2023/10/17 04:39:57;;;;;;;6.35;3.15;;;6.70;99.90;;;;;;5071918;28;20051;-71
2023/10/17 04:42:47;;;;;;;5.97;3.45;;;6.70;99.90;;;;;;5072171;28;20046;-71
2023/10/17 04:45:28;;;;;;;6.75;3.40;;;6.80;99.90;;;;;;5071784;28;20086;-71
2023/10/17 04:48:29;;;;;;;5.75;2.72;;;6.80;99.90;;;;;;5072118;28;20083;-70
2023/10/17 04:50:45;;;;;;;6.35;2.97;;;6.90;99.90;;;;;;5071454;28;20046;-70
2023/10/17 04:53:27;;;;;;;6.18;3.15;;;6.90;99.90;;;;;;5071791;28;20044;-71
2023/10/17 04:56:03;;;;;;;5.35;3.22;;;6.90;99.90;;;;;;5071866;28;20040;-71
2023/10/17 04:58:33;;;;;;;7.68;3.42;;;7.00;99.90;;;;;;5072016;28;20048;-71
2023/10/17 05:03:32;;;;;;;7.15;3.78;;;7.00;99.90;;;;;;5071643;28;20045;-71
2023/10/17 05:09:00;;;;;;;7.20;3.65;;;7.10;99.90;;;;;;5071918;28;20052;-71
2023/10/17 06:17:21;;;;;;;7.13;3.70;;;7.40;99.90;;;;;;5074115;28;20149;-71
2023/10/17 06:19:48;;;;;;;12.38;4.35;;;7.40;99.90;;;;;;5075980;28;20036;-70
2023/10/17 06:28:13;;;;;;;;;;;7.50;99.90;;;;;;5074657;28;20048;-70
2023/10/17 06:35:57;;;;;;;7.28;4.00;;;7.50;99.90;;;;;;5056271;28;20051;-71
2023/10/17 06:38:27;;;;;;;5.88;3.22;;;7.50;99.90;;;;;;5056718;28;20047;-71
2023/10/17 06:41:12;;;;;;;7.53;3.50;;;7.50;99.90;;;;;;5056454;28;20052;-71
2023/10/17 06:43:40;;;;;;;7.88;3.38;;;7.60;99.90;;;;;;5056671;28;20123;-71
2023/10/17 06:46:12;;;;;;;6.82;3.40;;;7.60;99.90;;;;;;5056489;28;20048;-71
2023/10/17 06:48:48;;;;;;;7.07;3.28;;;7.60;99.90;;;;;;5056348;28;20040;-71
2023/10/17 06:53:47;;;;;;;7.87;3.60;;;7.70;99.90;;;;;;5056543;28;20052;-71
2023/10/17 06:56:19;;;;;;;7.18;3.55;;;7.80;99.90;;;;;;5056034;28;20416;-71
2023/10/17 06:58:46;;;;;;;11.35;4.38;;;7.80;99.90;;;;;;5056129;28;20033;-71
2023/10/17 07:01:23;;;;;;;10.82;4.95;;;7.80;99.90;;;;;;5056234;28;20056;-71
2023/10/17 07:03:54;;;;;;;12.30;4.63;;;7.80;99.90;;;;;;5056017;28;20059;-71
2023/10/17 07:06:24;;;;;;;8.25;3.78;;;7.80;99.90;;;;;;5060112;28;20409;-71
2023/10/17 07:08:50;;;;;;;8.02;3.90;;;7.90;99.90;;;;;;5073722;28;20048;-71
2023/10/17 07:13:49;;;;;;;7.65;3.90;;;7.90;99.90;;;;;;5073319;28;20052;-71
2023/10/17 07:16:25;;;;;;;7.82;3.63;;;8.00;99.90;;;;;;5073267;28;20489;-70
2023/10/17 07:18:55;;;;;;;7.13;3.55;;;8.00;99.90;;;;;;5073509;28;20044;-71
2023/10/17 07:21:24;;;;;;;5.70;3.05;;;8.10;99.90;;;;;;5073303;28;20559;-71
2023/10/17 07:23:54;;;;;;;7.65;3.85;;;8.10;99.90;;;;;;5073871;28;20086;-70
2023/10/17 07:26:35;;;;;;;12.85;5.40;;;8.20;99.90;;;;;;5073017;28;20531;-70
2023/10/17 07:29:05;;;;;;;6.80;4.28;;;8.20;99.90;;;;;;5073301;28;20048;-71
2023/10/17 07:31:30;;;;;;;10.48;4.07;;;8.20;99.90;;;;;;5072950;28;20052;-71
2023/10/17 07:36:36;;;;;;;6.28;3.10;;;8.30;99.90;;;;;;5072779;28;20041;-71
2023/10/17 07:39:22;;;;;;;6.80;3.70;;;8.40;99.90;;;;;;5072822;28;20044;-71
2023/10/17 07:41:55;;;;;;;8.00;3.08;;;8.50;99.90;;;;;;5072527;28;20485;-71
2023/10/17 07:44:22;;;;;;;5.85;2.90;;;8.60;99.90;;;;;;5072777;28;20046;-71
2023/10/17 07:49:29;;;;;;;6.32;3.42;;;8.80;99.90;;;;;;5072724;28;20060;-71
2023/10/17 07:51:58;;;;;;;6.43;2.80;;;8.80;99.90;;;;;;5072798;28;20127;-71
2023/10/17 07:54:28;;;;;;;5.47;2.97;;;8.90;99.90;;;;;;5072841;28;20119;-70
2023/10/17 07:56:55;;;;;;;12.77;2.90;;;9.00;99.90;;;;;;5073628;28;20185;-70
2023/10/17 07:59:30;;;;;;;7.95;2.88;;;9.00;99.90;;;;;;5072384;28;20055;-70
2023/10/17 08:01:59;;;;;;;5.78;2.95;;;9.00;99.90;;;;;;5072434;28;20041;-71
2023/10/17 08:04:29;;;;;;;5.43;2.50;;;9.00;99.90;;;;;;5072667;28;20047;-70
2023/10/17 08:06:56;;;;;;;8.55;3.55;;;9.00;99.90;;;;;;5072290;28;20048;-70
2023/10/17 08:11:52;;;;;;;7.07;2.50;;;9.10;99.90;;;;;;5072614;28;20567;-70
2023/10/17 08:14:32;;;;;;;7.50;2.80;;;9.10;99.90;;;;;;5072212;28;20523;-70
2023/10/17 08:16:58;;;;;;;4.95;2.45;;;9.10;99.90;;;;;;5072036;28;20086;-70
2023/10/17 08:19:29;;;;;;;7.28;2.72;;;9.20;99.90;;;;;;5072134;28;20036;-70
2023/10/17 08:24:40;;;;;;;6.68;2.85;;;9.20;99.90;;;;;;5072458;28;20040;-71
2023/10/17 08:35:36;;;;;;;5.25;2.40;;;10.30;99.90;;;;;;5057731;28;20131;-71
2023/10/17 08:38:03;;;;;;;8.90;2.30;;;12.30;99.90;;;;;;5071864;28;20086;-71
2023/10/17 08:40:32;;;;;;;6.10;2.00;;;14.30;99.90;;;;;;5072145;28;20033;-71
2023/10/17 08:43:01;;;;;;;4.82;1.88;;;15.80;99.90;;;;;;5071854;28;20044;-71
2023/10/17 08:45:28;;;;;;;5.03;1.77;;;17.20;99.20;;;;;;5072030;28;20043;-71
2023/10/17 08:48:00;;;;;;;5.90;1.83;;;18.20;94.70;;;;;;5071790;28;20379;-71
2023/10/17 08:50:26;;;;;;;6.15;2.65;;;18.90;90.50;;;;;;5071950;28;20050;-70
2023/10/17 08:52:53;;;;;;;4.45;1.77;;;19.70;85.10;;;;;;5071749;28;20036;-69
2023/10/17 08:55:21;;;;;;;4.85;1.70;;;20.20;79.20;;;;;;5070941;28;20041;-69
2023/10/17 08:57:47;;;;;;;4.90;1.60;;;20.60;75.00;;;;;;5072199;28;20118;-69
2023/10/17 09:02:43;;;;;;;6.03;1.80;;;21.30;70.90;;;;;;5071581;28;20040;-69
2023/10/17 09:05:26;;;;;;;3.55;1.48;;;21.60;68.20;;;;;;5071546;28;20041;-69
2023/10/17 09:07:55;;;;;;;5.57;1.60;;;21.30;65.50;;;;;;5071677;28;20044;-69
2023/10/17 09:10:28;;;;;;;3.25;1.17;;;20.70;67.90;;;;;;5071830;28;20040;-69
2023/10/17 09:15:48;;;;;;;3.80;1.48;;;21.10;65.50;;;;;;5071399;28;20452;-69
2023/10/17 09:18:14;;;;;;;7.30;1.40;;;21.70;65.10;;;;;;5071772;28;20040;-69
2023/10/17 09:20:40;;;;;;;4.68;1.42;;;22.20;63.90;;;;;;5071486;28;20457;-69
2023/10/17 09:23:27;;;;;;;4.25;1.30;;;22.60;61.30;;;;;;5071785;28;20124;-70
2023/10/17 09:26:07;;;;;;;4.93;1.50;;;22.50;58.10;;;;;;5054729;28;20086;-70
2023/10/17 09:28:33;;;;;;;5.60;1.23;;;22.10;59.60;;;;;;5071503;28;20045;-70
2023/10/17 09:31:02;;;;;;;2.55;0.93;;;22.00;60.30;;;;;;5071527;28;20052;-70
2023/10/17 09:33:32;;;;;;;4.07;1.42;;;21.90;60.10;;;;;;5071729;28;20044;-70
2023/10/17 09:36:06;;;;;;;4.53;1.10;;;21.70;60.40;;;;;;5071248;28;20044;-69
2023/10/17 09:38:41;;;;;;;5.70;1.25;;;21.90;59.20;;;;;;5054984;28;20079;-69
2023/10/17 09:41:08;;;;;;;3.97;0.98;;;22.30;58.90;;;;;;5054673;28;20127;-69
2023/10/17 09:43:36;;;;;;;3.28;0.90;;;22.90;57.50;;;;;;5071308;28;20055;-69
2023/10/17 09:46:03;;;;;;;5.20;1.02;;;23.30;56.80;;;;;;5071172;28;20054;-70
2023/10/17 09:48:34;;;;;;;3.33;0.80;;;23.60;55.10;;;;;;5071265;28;20037;-70
2023/10/17 09:51:01;;;;;;;5.07;1.00;;;23.90;54.40;;;;;;5071236;28;20041;-70
2023/10/17 09:53:31;;;;;;;3.30;0.73;;;24.10;53.50;;;;;;5071500;28;20032;-70
2023/10/17 09:56:00;;;;;;;2.97;0.80;;;24.20;52.30;;;;;;5071048;28;20501;-70
2023/10/17 09:58:38;;;;;;;3.25;0.80;;;24.30;52.40;;;;;;5071181;28;20051;-69
2023/10/17 10:01:17;;;;;;;3.97;0.82;;;24.40;49.80;;;;;;5071472;28;20093;-69
2023/10/17 10:03:47;;;;;;;4.05;0.70;;;24.50;50.60;;;;;;5071115;28;20481;-69
2023/10/17 10:06:23;;;;;;;4.50;0.80;;;24.50;50.00;;;;;;5073677;28;20492;-69
2023/10/17 10:08:56;;;;;;;2.75;0.98;;;24.70;49.90;;;;;;5074607;28;20047;-70
2023/10/17 10:11:41;;;;;;;;;;;25.00;49.50;;;;;;5075003;28;20056;-71
2023/10/17 10:14:11;;;;;;;3.40;0.80;;;24.90;50.50;;;;;;5074625;28;20001;-71
2023/10/17 10:16:51;;;;;;;3.55;0.70;;;25.20;49.30;;;;;;5074365;28;20049;-71
2023/10/17 10:19:17;;;;;;;2.58;0.65;;;25.10;47.20;;;;;;5074728;28;20040;-71
2023/10/17 10:21:59;;;;;;;3.83;0.73;;;25.00;47.70;;;;;;5074683;28;20147;-71
2023/10/17 10:24:31;;;;;;;2.60;0.60;;;24.90;47.40;;;;;;5074585;28;20397;-71
2023/10/17 10:27:25;;;;;;;2.45;0.85;;;24.90;47.40;;;;;;5074256;28;20133;-71
2023/10/17 10:30:17;;;;;;;3.67;0.60;;;24.70;48.10;;;;;;5057531;28;20067;-69
2023/10/17 10:32:44;;;;;;;3.60;0.70;;;24.70;47.60;;;;;;5074121;28;20098;-70
2023/10/17 10:35:11;;;;;;;3.25;0.85;;;24.90;47.90;;;;;;5074079;28;20051;-69
2023/10/17 10:37:54;;;;;;;5.15;0.95;;;24.80;47.00;;;;;;5074036;28;20037;-70
2023/10/17 10:42:49;;;;;;;6.15;0.98;;;25.20;47.20;;;;;;5074238;28;20044;-69
2023/10/17 10:45:31;;;;;;;3.97;0.80;;;25.10;47.10;;;;;;5073921;28;20049;-69
2023/10/17 10:48:01;;;;;;;4.75;0.73;;;24.90;46.60;;;;;;5073924;28;20466;-69
2023/10/17 10:50:33;;;;;;;6.78;0.73;;;24.80;46.80;;;;;;5074120;28;20126;-69
2023/10/17 10:53:00;;;;;;;2.55;0.88;;;24.90;47.10;;;;;;5073849;28;20562;-69
2023/10/17 10:55:27;;;;;;;3.83;0.73;;;25.00;46.50;;;;;;5073638;28;20512;-69
2023/10/17 10:57:54;;;;;;;4.18;0.70;;;24.80;46.60;;;;;;5073642;28;20044;-69
2023/10/17 11:00:20;;;;;;;4.38;0.80;;;24.70;47.00;;;;;;5073693;28;20044;-69
2023/10/17 11:02:46;;;;;;;2.28;0.80;;;24.70;47.10;;;;;;5073633;28;20047;-68
2023/10/17 11:05:15;;;;;;;4.22;0.70;;;25.00;46.90;;;;;;5073697;28;20049;-68
2023/10/17 11:07:42;;;;;;;6.90;1.00;;;25.10;46.70;;;;;;5073396;28;20123;-68
2023/10/17 11:10:18;;;;;;;4.18;1.00;;;25.20;46.80;;;;;;5073396;28;20497;-69
2023/10/17 11:12:55;;;;;;;3.28;0.88;;;25.50;46.70;;;;;;5073379;28;20037;-69
2023/10/17 11:15:26;;;;;;;4.35;0.82;;;25.50;45.50;;;;;;5073286;28;20079;-69
2023/10/17 11:17:59;;;;;;;3.40;0.70;;;25.50;45.90;;;;;;5072440;28;20093;-69
2023/10/17 11:20:27;;;;;;;5.20;0.70;;;25.40;46.00;;;;;;5073534;28;20036;-69
2023/10/17 11:22:52;;;;;;;4.40;0.90;;;25.50;45.80;;;;;;5073262;28;20068;-68
2023/10/17 11:25:27;;;;;;;3.33;0.60;;;25.40;46.20;;;;;;5073098;28;20112;-68
2023/10/17 11:28:00;;;;;;;5.70;0.52;;;25.40;46.30;;;;;;5073140;28;20055;-69
2023/10/17 11:30:32;;;;;;;;;;;25.50;46.20;;;;;;5073773;28;20032;-69
2023/10/17 11:33:05;;;;;;;3.30;0.70;;;25.20;45.40;;;;;;5073329;28;19939;-69
2023/10/17 11:35:34;;;;;;;1.88;0.50;;;25.10;46.60;;;;;;5073146;28;20547;-69
2023/10/17 11:38:00;;;;;;;3.55;0.38;;;24.90;47.00;;;;;;5072837;28;20049;-69
2023/10/17 11:40:43;;;;;;;3.70;0.70;;;24.70;47.10;;;;;;5072862;28;20115;-69
2023/10/17 11:43:18;;;;;;;;;;;24.60;46.70;;;;;;5073561;28;20067;-69
2023/10/17 11:45:45;;;;;;;3.80;0.60;;;24.40;46.80;;;;;;5072726;28;19916;-69
2023/10/17 11:48:28;;;;;;;3.13;0.73;;;24.20;48.30;;;;;;5072702;28;20488;-69
2023/10/17 11:51:13;;;;;;;4.10;0.80;;;24.00;47.60;;;;;;5073013;28;20036;-69
2023/10/17 11:54:04;;;;;;;3.40;0.63;;;23.80;47.30;;;;;;5072894;28;20101;-69
2023/10/17 11:56:37;;;;;;;3.50;0.47;;;23.40;48.20;;;;;;5072408;28;20044;-69
2023/10/17 11:59:06;;;;;;;4.05;0.70;;;23.20;49.10;;;;;;5072530;28;20049;-69
2023/10/17 12:01:32;;;;;;;2.55;0.60;;;22.90;49.20;;;;;;5072453;28;20083;-69
2023/10/17 12:04:11;;;;;;;2.13;0.40;;;22.80;50.30;;;;;;5072638;28;20079;-69
2023/10/17 12:06:40;;;;;;;2.92;1.00;;;22.70;50.20;;;;;;5072589;28;20080;-69
2023/10/17 12:09:17;;;;;;;1.52;0.70;;;22.60;50.00;;;;;;5072324;28;20070;-69
2023/10/17 12:11:47;;;;;;;4.47;0.70;;;22.40;49.80;;;;;;5072264;28;20044;-69
2023/10/17 12:14:20;;;;;;;1.60;0.50;;;22.30;49.50;;;;;;5072217;28;20409;-69
2023/10/17 12:16:53;;;;;;;3.58;0.70;;;22.20;50.30;;;;;;5072198;28;20044;-69
2023/10/17 12:19:19;;;;;;;2.35;0.60;;;22.20;49.90;;;;;;5072236;28;20041;-69
2023/10/17 12:21:48;;;;;;;2.03;0.57;;;22.20;50.80;;;;;;5072161;28;20040;-69
2023/10/17 12:24:24;;;;;;;3.72;0.60;;;22.20;50.90;;;;;;5072378;28;20036;-70
2023/10/17 12:26:53;;;;;;;2.40;0.60;;;22.20;50.50;;;;;;5072288;28;20520;-70
2023/10/17 12:29:19;;;;;;;3.13;0.65;;;22.20;50.60;;;;;;5071385;28;20067;-70
2023/10/17 12:31:45;;;;;;;2.13;0.63;;;22.10;50.70;;;;;;5072027;28;20044;-70
2023/10/17 12:34:15;;;;;;;3.72;1.00;;;22.00;50.80;;;;;;5055311;28;20041;-70
2023/10/17 12:36:41;;;;;;;2.58;0.60;;;22.10;51.10;;;;;;5071838;28;20044;-70
2023/10/17 12:39:07;;;;;;;4.43;1.17;;;22.10;51.20;;;;;;5071919;28;20036;-70
2023/10/17 12:41:34;;;;;;;2.42;0.60;;;22.00;50.80;;;;;;5071922;28;20036;-70
2023/10/17 12:44:00;;;;;;;1.58;0.60;;;22.00;50.80;;;;;;5072122;28;20098;-69
2023/10/17 12:46:26;;;;;;;4.20;0.80;;;22.00;51.50;;;;;;5071793;28;20072;-70
2023/10/17 12:48:52;;;;;;;4.38;1.02;;;21.90;51.60;;;;;;5071810;28;20066;-69
2023/10/17 12:51:20;;;;;;;2.25;0.65;;;21.80;51.00;;;;;;5071838;28;20040;-69
2023/10/17 12:53:46;;;;;;;2.00;0.77;;;21.70;51.20;;;;;;5071802;28;20083;-69
2023/10/17 12:56:12;;;;;;;4.55;0.80;;;21.80;51.20;;;;;;5071654;28;20079;-69
2023/10/17 12:58:38;;;;;;;2.88;0.88;;;21.80;51.80;;;;;;5071731;28;20064;-69
2023/10/17 13:01:07;;;;;;;5.03;0.95;;;21.90;52.00;;;;;;5072012;28;20074;-69
2023/10/17 13:03:36;;;;;;;3.08;0.82;;;21.90;51.10;;;;;;5071957;28;20029;-70
2023/10/17 13:06:02;;;;;;;2.60;0.70;;;21.90;51.30;;;;;;5071533;28;20398;-69
2023/10/17 13:08:28;;;;;;;6.93;0.93;;;21.80;51.50;;;;;;5071658;28;20093;-69
2023/10/17 13:10:55;;;;;;;4.10;0.90;;;21.70;51.70;;;;;;5071640;28;20048;-70
2023/10/17 13:13:21;;;;;;;3.15;0.85;;;21.60;52.10;;;;;;5071692;28;20048;-69
2023/10/17 13:15:48;;;;;;;3.60;0.80;;;21.50;51.50;;;;;;5071548;28;20102;-69
2023/10/17 13:18:14;;;;;;;4.07;0.88;;;21.40;51.50;;;;;;5071730;28;20036;-69
2023/10/17 13:20:48;;;;;;;2.55;0.70;;;21.40;51.80;;;;;;5071628;28;20052;-70
2023/10/17 13:23:16;;;;;;;3.47;0.70;;;21.30;51.50;;;;;;5071522;28;20048;-70
2023/10/17 13:25:43;;;;;;;4.00;0.88;;;21.30;52.10;;;;;;5071619;28;20071;-69
2023/10/17 13:28:12;;;;;;;2.78;0.80;;;21.30;52.70;;;;;;5071439;28;20067;-70
2023/10/17 13:30:38;;;;;;;3.13;0.90;;;21.30;52.20;;;;;;5071933;28;20075;-69
2023/10/17 13:33:04;;;;;;;3.35;0.90;;;21.30;52.00;;;;;;5071788;28;20454;-69
2023/10/17 13:35:30;;;;;;;3.17;0.80;;;21.30;52.10;;;;;;5071326;28;20076;-69
2023/10/17 13:37:58;;;;;;;2.92;0.60;;;21.20;52.30;;;;;;5072892;28;20097;-75
2023/10/17 13:40:25;;;;;;;3.65;0.90;;;21.20;52.20;;;;;;5073831;28;20041;-69
2023/10/17 13:42:52;;;;;;;5.35;0.98;;;21.10;52.60;;;;;;5075125;28;20390;-69
2023/10/17 13:45:21;;;;;;;5.65;0.80;;;20.90;52.50;;;;;;5075516;28;20071;-69
2023/10/17 13:47:48;;;;;;;1.63;0.52;;;20.90;52.90;;;;;;5075008;28;20052;-69
2023/10/17 13:50:15;;;;;;;5.05;1.15;;;20.80;53.20;;;;;;5074879;28;20405;-69
2023/10/17 13:52:41;;;;;;;3.35;0.93;;;20.80;53.30;;;;;;5075037;28;20044;-74
2023/10/17 13:55:11;;;;;;;5.78;0.90;;;20.70;52.90;;;;;;5074917;28;20587;-70
2023/10/17 13:57:38;;;;;;;2.92;0.73;;;20.60;53.00;;;;;;5074904;28;20051;-69
2023/10/17 14:00:06;;;;;;;5.10;0.70;;;20.50;53.40;;;;;;5074828;28;20043;-69
2023/10/17 14:02:32;;;;;;;2.63;0.68;;;20.50;53.10;;;;;;5074748;28;20059;-69
2023/10/17 14:04:58;;;;;;;3.20;0.60;;;20.30;53.10;;;;;;5074720;28;20482;-69
2023/10/17 14:07:23;;;;;;;4.43;0.80;;;20.00;53.50;;;;;;5074586;28;20094;-70
2023/10/17 14:09:55;;;;;;;3.25;1.08;;;19.90;53.70;;;;;;5074701;28;20054;-70
2023/10/17 14:12:24;;;;;;;2.95;0.77;;;19.70;53.90;;;;;;5074968;28;20128;-70
2023/10/17 14:14:49;;;;;;;4.53;1.05;;;19.40;54.50;;;;;;5074548;28;20124;-70
2023/10/17 14:17:15;;;;;;;5.35;0.70;;;19.20;55.20;;;;;;5075502;28;20097;-70
2023/10/17 14:19:44;;;;;;;2.42;1.00;;;19.00;55.60;;;;;;5074500;28;20055;-70
2023/10/17 14:22:21;;;;;;;3.00;0.88;;;18.70;55.90;;;;;;5074301;28;20047;-70
2023/10/17 14:24:50;;;;;;;4.70;0.90;;;18.40;56.80;;;;;;5074479;28;20044;-70
2023/10/17 14:27:29;;;;;;;16.27;2.47;;;18.10;56.40;;;;;;5074206;28;20098;-70
2023/10/17 14:29:59;;;;;;;11.82;1.70;;;17.80;57.00;;;;;;5057636;28;20048;-70
2023/10/17 14:32:29;;;;;;;14.43;2.45;;;17.50;57.70;;;;;;5074449;28;20485;-70
2023/10/17 14:34:56;;;;;;;3.67;0.93;;;17.30;58.40;;;;;;5057462;28;20087;-70
2023/10/17 14:37:23;;;;;;;3.88;0.75;;;17.10;59.20;;;;;;5073938;28;20051;-70
2023/10/17 14:39:51;;;;;;;3.88;0.90;;;16.90;59.70;;;;;;5074061;28;20083;-71
2023/10/17 14:42:17;;;;;;;3.83;1.08;;;16.80;60.00;;;;;;5074016;28;20427;-71
2023/10/17 14:44:45;;;;;;;3.65;0.95;;;16.60;60.10;;;;;;5057272;28;20131;-71
2023/10/17 14:47:14;;;;;;;3.42;0.73;;;16.40;60.10;;;;;;5074110;28;20040;-71
2023/10/17 14:49:47;;;;;;;4.05;0.80;;;16.20;60.70;;;;;;5073915;28;20048;-71
2023/10/17 14:52:13;;;;;;;2.55;0.68;;;16.10;61.50;;;;;;5072720;28;20054;-71
2023/10/17 14:54:42;;;;;;;3.08;0.88;;;16.00;61.70;;;;;;5073795;28;20052;-71
2023/10/17 14:57:09;;;;;;;6.00;1.00;;;15.80;62.20;;;;;;5073606;28;20080;-71
2023/10/17 14:59:38;;;;;;;3.13;0.93;;;15.70;62.50;;;;;;5073719;28;20044;-71
2023/10/17 15:02:05;;;;;;;4.70;0.80;;;15.60;62.70;;;;;;5073649;28;20047;-71
2023/10/17 15:04:31;;;;;;;4.05;1.25;;;15.50;63.10;;;;;;5073858;28;20040;-71
2023/10/17 15:06:57;;;;;;;3.50;0.95;;;15.40;63.50;;;;;;5073743;28;20052;-71
2023/10/17 15:09:23;;;;;;;3.47;0.80;;;15.30;64.10;;;;;;5073510;28;20041;-72
2023/10/17 15:11:49;;;;;;;4.63;1.05;;;15.10;64.80;;;;;;5073490;28;20055;-72
2023/10/17 15:14:18;;;;;;;2.55;0.80;;;15.10;64.50;;;;;;5073446;28;20037;-74
2023/10/17 15:16:43;;;;;;;3.25;0.80;;;15.00;65.20;;;;;;5073106;28;20041;-74